ムンバイ の空港の天気 - METARとTAF

チャットラパティー・シヴァージー国際空港 ( VABB / BOM ) - インド ムンバイ
飛行場実況気象(Metar)
観測時間03/27 19:30 IST (03/27 14:00 UTC)
風向・風速北北西 6m/s
視程5000m
天気現象
なし
気温35℃
湿度32%
気圧1008hPa
METARVABB 271400Z 34012KT 5000 FU NSC 35/16 Q1008 BECMG 3000
過去の天気等 Google飛行場航空写真 Wunderground天気予報

過去48時間のMETAR

飛行場予報(TAF)
発表時間: 3/27 16:30 IST (3/27 11:00 UTC)
予報対象時間: 27日17時 IST ~ 28日23時 IST
風向・風速西北西 4m/s
視程5,000m
天気現象
なし
27日18時 IST ~ 27日20時 IST に徐々に
視程3,000m
天気現象
27日21時 IST ~ 27日23時 IST に徐々に
風向・風速東北東 2m/s
28日9時 IST ~ 28日11時 IST に徐々に
風向・風速南東 3m/s
視程5,000m
天気現象
28日12時 IST ~ 28日14時 IST に徐々に
風向・風速西北西 3m/s
28日18時 IST ~ 28日20時 IST に徐々に
視程3,000m
天気現象
28日21時 IST ~ 28日23時 IST に徐々に
風向・風速東 2m/s
TAF VABB 271100Z 2712/2818 30008KT 5000 FU NSC
BECMG 2713/2715 3000 FU
BECMG 2716/2718 07004KT
BECMG 2804/2806 14005KT 5000 FU
BECMG 2807/2809 29006KT
BECMG 2813/2815 3000 FU
BECMG 2816/2818 09004KT